sensor_id;sensor_type;location;lat;lon;timestamp;P1;durP1;ratioP1;P2;durP2;ratioP2
80679;SDS011;70043;51.982;-8.514;2023-05-08T13:47:54;6.20;;;2.93;;
80679;SDS011;70043;51.982;-8.514;2023-05-08T13:50:23;9.43;;;2.22;;
80679;SDS011;70043;51.982;-8.514;2023-05-08T13:52:53;7.40;;;2.55;;
80679;SDS011;70043;51.982;-8.514;2023-05-08T13:55:21;7.13;;;1.80;;
80679;SDS011;70043;51.982;-8.514;2023-05-08T13:57:49;7.70;;;2.25;;
80679;SDS011;70043;51.982;-8.514;2023-05-08T14:00:17;5.18;;;1.63;;
80679;SDS011;70043;51.982;-8.514;2023-05-08T14:02:47;8.73;;;2.30;;
80679;SDS011;70043;51.982;-8.514;2023-05-08T14:05:15;10.82;;;2.47;;
80679;SDS011;70043;51.982;-8.514;2023-05-08T14:07:43;7.63;;;1.60;;
80679;SDS011;70043;51.982;-8.514;2023-05-08T14:10:16;7.45;;;1.85;;
80679;SDS011;70043;51.982;-8.514;2023-05-08T14:12:44;6.82;;;1.75;;
80679;SDS011;70043;51.982;-8.514;2023-05-08T14:15:12;7.90;;;2.00;;
80679;SDS011;70043;51.982;-8.514;2023-05-08T14:17:40;6.55;;;1.20;;
80679;SDS011;70043;51.982;-8.514;2023-05-08T14:20:10;3.80;;;1.52;;
80679;SDS011;70043;51.982;-8.514;2023-05-08T14:22:40;5.13;;;1.63;;
80679;SDS011;70043;51.982;-8.514;2023-05-08T14:25:08;9.77;;;2.83;;
80679;SDS011;70043;51.982;-8.514;2023-05-08T14:27:37;4.75;;;1.38;;
80679;SDS011;70043;51.982;-8.514;2023-05-08T14:30:07;6.50;;;2.28;;
80679;SDS011;70043;51.982;-8.514;2023-05-08T14:32:39;10.95;;;2.40;;
80679;SDS011;70043;51.982;-8.514;2023-05-08T14:35:15;8.32;;;1.80;;
80679;SDS011;70043;51.982;-8.514;2023-05-08T14:37:45;6.00;;;2.47;;
80679;SDS011;70043;51.982;-8.514;2023-05-08T14:40:12;8.52;;;2.03;;
80679;SDS011;70043;51.982;-8.514;2023-05-08T14:42:44;11.77;;;2.20;;
80679;SDS011;70043;51.982;-8.514;2023-05-08T14:45:14;10.32;;;2.47;;
80679;SDS011;70043;51.982;-8.514;2023-05-08T14:47:44;6.35;;;1.95;;
80679;SDS011;70043;51.982;-8.514;2023-05-08T14:50:17;5.53;;;1.35;;
80679;SDS011;70043;51.982;-8.514;2023-05-08T14:52:45;9.07;;;1.77;;
80679;SDS011;70043;51.982;-8.514;2023-05-08T14:55:13;2.40;;;1.75;;
80679;SDS011;70043;51.982;-8.514;2023-05-08T14:57:45;14.63;;;2.20;;
80679;SDS011;70043;51.982;-8.514;2023-05-08T15:00:14;4.70;;;1.10;;
80679;SDS011;70043;51.982;-8.514;2023-05-08T15:02:42;5.50;;;1.60;;
80679;SDS011;70043;51.982;-8.514;2023-05-08T15:05:11;8.27;;;1.60;;
80679;SDS011;70043;51.982;-8.514;2023-05-08T15:07:40;11.00;;;1.98;;
80679;SDS011;70043;51.982;-8.514;2023-05-08T15:10:09;9.55;;;1.88;;
80679;SDS011;70043;51.982;-8.514;2023-05-08T15:12:37;4.57;;;1.33;;
80679;SDS011;70043;51.982;-8.514;2023-05-08T15:15:05;11.73;;;2.17;;
80679;SDS011;70043;51.982;-8.514;2023-05-08T15:17:33;31.45;;;8.85;;
80679;SDS011;70043;51.982;-8.514;2023-05-08T15:20:01;25.83;;;7.63;;
80679;SDS011;70043;51.982;-8.514;2023-05-08T15:22:29;17.85;;;6.45;;
80679;SDS011;70043;51.982;-8.514;2023-05-08T15:24:59;9.35;;;2.60;;
80679;SDS011;70043;51.982;-8.514;2023-05-08T15:27:27;29.65;;;8.38;;
80679;SDS011;70043;51.982;-8.514;2023-05-08T15:29:56;24.08;;;9.60;;
80679;SDS011;70043;51.982;-8.514;2023-05-08T15:32:24;20.15;;;9.23;;
80679;SDS011;70043;51.982;-8.514;2023-05-08T15:34:52;23.00;;;6.93;;
80679;SDS011;70043;51.982;-8.514;2023-05-08T15:37:20;9.90;;;4.22;;
80679;SDS011;70043;51.982;-8.514;2023-05-08T15:39:50;19.80;;;5.43;;
80679;SDS011;70043;51.982;-8.514;2023-05-08T15:42:19;9.02;;;2.20;;
80679;SDS011;70043;51.982;-8.514;2023-05-08T15:44:46;3.05;;;1.17;;
80679;SDS011;70043;51.982;-8.514;2023-05-08T15:47:14;2.75;;;1.45;;
80679;SDS011;70043;51.982;-8.514;2023-05-08T15:49:43;8.88;;;2.25;;
80679;SDS011;70043;51.982;-8.514;2023-05-08T15:52:11;7.18;;;3.25;;
80679;SDS011;70043;51.982;-8.514;2023-05-08T15:54:42;8.23;;;2.10;;
80679;SDS011;70043;51.982;-8.514;2023-05-08T15:57:10;11.68;;;2.33;;
80679;SDS011;70043;51.982;-8.514;2023-05-08T15:59:39;8.00;;;3.05;;
80679;SDS011;70043;51.982;-8.514;2023-05-08T16:02:07;8.48;;;2.70;;
80679;SDS011;70043;51.982;-8.514;2023-05-08T16:04:35;3.90;;;1.13;;
80679;SDS011;70043;51.982;-8.514;2023-05-08T16:07:03;8.82;;;1.55;;
80679;SDS011;70043;51.982;-8.514;2023-05-08T16:09:32;1.85;;;0.85;;
80679;SDS011;70043;51.982;-8.514;2023-05-08T16:12:07;6.93;;;1.20;;
80679;SDS011;70043;51.982;-8.514;2023-05-08T16:14:35;3.38;;;1.02;;
80679;SDS011;70043;51.982;-8.514;2023-05-08T16:17:04;4.63;;;1.33;;
80679;SDS011;70043;51.982;-8.514;2023-05-08T16:19:35;10.50;;;3.47;;
80679;SDS011;70043;51.982;-8.514;2023-05-08T16:22:05;15.07;;;4.63;;
80679;SDS011;70043;51.982;-8.514;2023-05-08T16:24:33;3.78;;;1.20;;
80679;SDS011;70043;51.982;-8.514;2023-05-08T16:27:01;11.15;;;3.13;;
80679;SDS011;70043;51.982;-8.514;2023-05-08T16:29:31;15.63;;;3.13;;
80679;SDS011;70043;51.982;-8.514;2023-05-08T16:31:59;14.75;;;4.90;;
80679;SDS011;70043;51.982;-8.514;2023-05-08T16:34:28;23.65;;;6.28;;
80679;SDS011;70043;51.982;-8.514;2023-05-08T16:36:56;13.65;;;3.63;;
80679;SDS011;70043;51.982;-8.514;2023-05-08T16:39:24;16.73;;;6.05;;
80679;SDS011;70043;51.982;-8.514;2023-05-08T16:41:52;13.02;;;4.82;;
80679;SDS011;70043;51.982;-8.514;2023-05-08T16:44:19;7.68;;;2.97;;
80679;SDS011;70043;51.982;-8.514;2023-05-08T16:46:47;10.82;;;2.88;;
80679;SDS011;70043;51.982;-8.514;2023-05-08T16:49:16;5.70;;;2.22;;
80679;SDS011;70043;51.982;-8.514;2023-05-08T16:51:45;3.30;;;1.23;;
80679;SDS011;70043;51.982;-8.514;2023-05-08T16:54:13;8.98;;;1.70;;
80679;SDS011;70043;51.982;-8.514;2023-05-08T16:56:41;3.83;;;1.95;;
80679;SDS011;70043;51.982;-8.514;2023-05-08T16:59:09;8.25;;;1.88;;
80679;SDS011;70043;51.982;-8.514;2023-05-08T17:01:38;3.92;;;2.25;;
80679;SDS011;70043;51.982;-8.514;2023-05-08T17:04:06;3.55;;;1.70;;
80679;SDS011;70043;51.982;-8.514;2023-05-08T17:06:34;2.63;;;1.35;;
80679;SDS011;70043;51.982;-8.514;2023-05-08T17:09:05;1.92;;;1.25;;
80679;SDS011;70043;51.982;-8.514;2023-05-08T17:11:32;2.55;;;1.08;;
80679;SDS011;70043;51.982;-8.514;2023-05-08T17:14:03;6.75;;;1.17;;
80679;SDS011;70043;51.982;-8.514;2023-05-08T17:16:31;5.13;;;0.95;;
80679;SDS011;70043;51.982;-8.514;2023-05-08T17:19:00;3.60;;;1.58;;
80679;SDS011;70043;51.982;-8.514;2023-05-08T17:21:28;4.13;;;1.10;;
80679;SDS011;70043;51.982;-8.514;2023-05-08T17:23:58;3.70;;;1.00;;
80679;SDS011;70043;51.982;-8.514;2023-05-08T17:26:30;5.90;;;1.75;;
80679;SDS011;70043;51.982;-8.514;2023-05-08T17:28:58;5.55;;;2.00;;
80679;SDS011;70043;51.982;-8.514;2023-05-08T17:31:25;4.18;;;1.23;;
80679;SDS011;70043;51.982;-8.514;2023-05-08T17:33:53;4.40;;;1.73;;
80679;SDS011;70043;51.982;-8.514;2023-05-08T17:36:21;3.60;;;0.68;;
80679;SDS011;70043;51.982;-8.514;2023-05-08T17:38:49;2.70;;;1.08;;
80679;SDS011;70043;51.982;-8.514;2023-05-08T17:41:20;9.93;;;1.90;;
80679;SDS011;70043;51.982;-8.514;2023-05-08T17:43:51;4.38;;;0.65;;
80679;SDS011;70043;51.982;-8.514;2023-05-08T17:46:20;5.60;;;1.42;;
80679;SDS011;70043;51.982;-8.514;2023-05-08T17:51:27;10.13;;;1.13;;
80679;SDS011;70043;51.982;-8.514;2023-05-08T17:53:58;7.10;;;2.17;;
80679;SDS011;70043;51.982;-8.514;2023-05-08T17:56:26;4.05;;;1.13;;
80679;SDS011;70043;51.982;-8.514;2023-05-08T17:58:59;3.05;;;1.38;;
80679;SDS011;70043;51.982;-8.514;2023-05-08T18:01:27;7.13;;;1.58;;
80679;SDS011;70043;51.982;-8.514;2023-05-08T18:03:58;8.02;;;1.05;;
80679;SDS011;70043;51.982;-8.514;2023-05-08T18:06:28;5.78;;;1.20;;
80679;SDS011;70043;51.982;-8.514;2023-05-08T18:08:56;3.15;;;1.20;;
80679;SDS011;70043;51.982;-8.514;2023-05-08T18:11:24;3.50;;;1.17;;
80679;SDS011;70043;51.982;-8.514;2023-05-08T18:13:53;4.70;;;1.02;;
80679;SDS011;70043;51.982;-8.514;2023-05-08T18:16:32;4.45;;;1.00;;
80679;SDS011;70043;51.982;-8.514;2023-05-08T18:19:00;6.10;;;1.30;;
80679;SDS011;70043;51.982;-8.514;2023-05-08T18:21:36;3.42;;;1.63;;
80679;SDS011;70043;51.982;-8.514;2023-05-08T18:24:04;6.75;;;1.65;;
80679;SDS011;70043;51.982;-8.514;2023-05-08T18:26:34;5.68;;;1.50;;
80679;SDS011;70043;51.982;-8.514;2023-05-08T18:29:02;6.47;;;1.10;;
80679;SDS011;70043;51.982;-8.514;2023-05-08T18:31:37;8.25;;;1.00;;
80679;SDS011;70043;51.982;-8.514;2023-05-08T18:34:05;4.05;;;1.23;;
80679;SDS011;70043;51.982;-8.514;2023-05-08T18:36:35;2.38;;;0.50;;
80679;SDS011;70043;51.982;-8.514;2023-05-08T18:39:02;5.65;;;1.20;;
80679;SDS011;70043;51.982;-8.514;2023-05-08T18:41:37;3.28;;;0.88;;
80679;SDS011;70043;51.982;-8.514;2023-05-08T18:44:14;3.67;;;1.23;;
80679;SDS011;70043;51.982;-8.514;2023-05-08T18:46:43;6.47;;;1.00;;
80679;SDS011;70043;51.982;-8.514;2023-05-08T18:49:11;3.03;;;0.85;;
80679;SDS011;70043;51.982;-8.514;2023-05-08T18:51:41;1.23;;;0.75;;
80679;SDS011;70043;51.982;-8.514;2023-05-08T19:25:24;8.90;;;1.70;;
80679;SDS011;70043;51.982;-8.514;2023-05-08T19:31:14;4.25;;;1.27;;
80679;SDS011;70043;51.982;-8.514;2023-05-08T19:37:03;5.00;;;1.58;;
80679;SDS011;70043;51.982;-8.514;2023-05-08T19:42:16;5.57;;;2.08;;
80679;SDS011;70043;51.982;-8.514;2023-05-08T19:47:23;6.10;;;1.35;;
80679;SDS011;70043;51.982;-8.514;2023-05-08T19:49:54;4.80;;;2.55;;
80679;SDS011;70043;51.982;-8.514;2023-05-08T19:52:22;5.10;;;1.88;;
80679;SDS011;70043;51.982;-8.514;2023-05-08T19:54:50;13.25;;;2.45;;
80679;SDS011;70043;51.982;-8.514;2023-05-08T19:57:19;5.53;;;1.60;;
80679;SDS011;70043;51.982;-8.514;2023-05-08T19:59:47;6.68;;;1.45;;
80679;SDS011;70043;51.982;-8.514;2023-05-08T20:02:15;6.07;;;1.92;;
80679;SDS011;70043;51.982;-8.514;2023-05-08T20:04:44;5.80;;;2.35;;
80679;SDS011;70043;51.982;-8.514;2023-05-08T20:07:12;7.65;;;2.35;;
80679;SDS011;70043;51.982;-8.514;2023-05-08T20:09:40;6.15;;;1.80;;
80679;SDS011;70043;51.982;-8.514;2023-05-08T20:12:08;5.30;;;1.80;;
80679;SDS011;70043;51.982;-8.514;2023-05-08T20:14:37;7.70;;;1.52;;
80679;SDS011;70043;51.982;-8.514;2023-05-08T20:17:05;5.32;;;1.23;;
80679;SDS011;70043;51.982;-8.514;2023-05-08T20:19:33;7.40;;;2.35;;
80679;SDS011;70043;51.982;-8.514;2023-05-08T20:22:01;7.30;;;1.80;;
80679;SDS011;70043;51.982;-8.514;2023-05-08T20:24:29;9.77;;;3.63;;
80679;SDS011;70043;51.982;-8.514;2023-05-08T20:26:57;3.22;;;1.88;;
80679;SDS011;70043;51.982;-8.514;2023-05-08T20:29:24;2.50;;;1.48;;
80679;SDS011;70043;51.982;-8.514;2023-05-08T20:31:54;7.15;;;1.58;;
80679;SDS011;70043;51.982;-8.514;2023-05-08T20:34:21;3.40;;;1.10;;
80679;SDS011;70043;51.982;-8.514;2023-05-08T20:36:49;3.22;;;1.58;;
80679;SDS011;70043;51.982;-8.514;2023-05-08T20:39:17;6.10;;;1.42;;
80679;SDS011;70043;51.982;-8.514;2023-05-08T20:41:45;6.85;;;1.63;;
80679;SDS011;70043;51.982;-8.514;2023-05-08T20:44:13;7.90;;;1.55;;
80679;SDS011;70043;51.982;-8.514;2023-05-08T20:46:43;6.57;;;1.58;;
80679;SDS011;70043;51.982;-8.514;2023-05-08T20:49:12;4.60;;;1.20;;
80679;SDS011;70043;51.982;-8.514;2023-05-08T20:51:41;2.58;;;1.05;;
80679;SDS011;70043;51.982;-8.514;2023-05-08T20:54:09;10.95;;;2.33;;
80679;SDS011;70043;51.982;-8.514;2023-05-08T20:56:37;9.15;;;1.95;;
80679;SDS011;70043;51.982;-8.514;2023-05-08T20:59:05;5.80;;;1.63;;
80679;SDS011;70043;51.982;-8.514;2023-05-08T21:01:33;5.60;;;2.30;;
80679;SDS011;70043;51.982;-8.514;2023-05-08T21:04:00;7.43;;;2.00;;
80679;SDS011;70043;51.982;-8.514;2023-05-08T21:06:30;6.93;;;2.13;;
80679;SDS011;70043;51.982;-8.514;2023-05-08T21:08:58;10.88;;;2.28;;
80679;SDS011;70043;51.982;-8.514;2023-05-08T21:11:25;8.82;;;1.30;;
80679;SDS011;70043;51.982;-8.514;2023-05-08T21:13:53;3.63;;;1.33;;
80679;SDS011;70043;51.982;-8.514;2023-05-08T21:16:21;9.38;;;2.42;;
80679;SDS011;70043;51.982;-8.514;2023-05-08T21:18:49;5.55;;;1.52;;
80679;SDS011;70043;51.982;-8.514;2023-05-08T21:21:16;9.45;;;2.03;;
80679;SDS011;70043;51.982;-8.514;2023-05-08T21:23:46;10.27;;;2.63;;
80679;SDS011;70043;51.982;-8.514;2023-05-08T21:26:13;4.30;;;1.67;;
80679;SDS011;70043;51.982;-8.514;2023-05-08T21:28:44;9.30;;;1.58;;
80679;SDS011;70043;51.982;-8.514;2023-05-08T21:31:12;6.57;;;1.50;;
80679;SDS011;70043;51.982;-8.514;2023-05-08T21:33:40;6.45;;;1.42;;
80679;SDS011;70043;51.982;-8.514;2023-05-08T21:36:07;10.18;;;2.53;;
80679;SDS011;70043;51.982;-8.514;2023-05-08T21:38:35;10.65;;;2.25;;
80679;SDS011;70043;51.982;-8.514;2023-05-08T21:41:07;7.05;;;1.85;;
80679;SDS011;70043;51.982;-8.514;2023-05-08T21:43:35;4.63;;;1.70;;
80679;SDS011;70043;51.982;-8.514;2023-05-08T21:46:03;10.70;;;2.00;;
80679;SDS011;70043;51.982;-8.514;2023-05-08T21:48:33;6.75;;;1.70;;
80679;SDS011;70043;51.982;-8.514;2023-05-08T21:51:01;13.02;;;2.60;;
80679;SDS011;70043;51.982;-8.514;2023-05-08T21:53:29;6.20;;;1.80;;
80679;SDS011;70043;51.982;-8.514;2023-05-08T21:55:57;9.48;;;1.63;;
80679;SDS011;70043;51.982;-8.514;2023-05-08T21:58:26;9.95;;;2.60;;
80679;SDS011;70043;51.982;-8.514;2023-05-08T22:00:54;9.13;;;2.42;;
80679;SDS011;70043;51.982;-8.514;2023-05-08T22:03:22;9.13;;;2.25;;
80679;SDS011;70043;51.982;-8.514;2023-05-08T22:05:50;8.15;;;1.27;;
80679;SDS011;70043;51.982;-8.514;2023-05-08T22:08:19;7.88;;;1.40;;
80679;SDS011;70043;51.982;-8.514;2023-05-08T22:10:47;5.05;;;1.63;;
80679;SDS011;70043;51.982;-8.514;2023-05-08T22:13:15;8.40;;;2.00;;
80679;SDS011;70043;51.982;-8.514;2023-05-08T22:15:44;6.85;;;1.63;;
80679;SDS011;70043;51.982;-8.514;2023-05-08T22:18:13;13.02;;;2.95;;
80679;SDS011;70043;51.982;-8.514;2023-05-08T22:20:41;8.55;;;2.47;;
80679;SDS011;70043;51.982;-8.514;2023-05-08T22:23:09;9.77;;;1.98;;
80679;SDS011;70043;51.982;-8.514;2023-05-08T22:25:37;8.50;;;2.40;;
80679;SDS011;70043;51.982;-8.514;2023-05-08T22:28:05;4.80;;;2.20;;
80679;SDS011;70043;51.982;-8.514;2023-05-08T22:30:32;9.10;;;1.95;;
80679;SDS011;70043;51.982;-8.514;2023-05-08T22:33:02;9.35;;;1.55;;
80679;SDS011;70043;51.982;-8.514;2023-05-08T22:35:29;5.70;;;1.90;;
80679;SDS011;70043;51.982;-8.514;2023-05-08T22:37:58;6.15;;;1.92;;
80679;SDS011;70043;51.982;-8.514;2023-05-08T22:40:26;8.40;;;2.08;;
80679;SDS011;70043;51.982;-8.514;2023-05-08T22:42:55;11.73;;;2.92;;
80679;SDS011;70043;51.982;-8.514;2023-05-08T22:45:22;10.85;;;2.38;;
80679;SDS011;70043;51.982;-8.514;2023-05-08T22:47:52;8.60;;;1.77;;
80679;SDS011;70043;51.982;-8.514;2023-05-08T22:50:21;7.68;;;2.03;;
80679;SDS011;70043;51.982;-8.514;2023-05-08T22:52:49;10.57;;;1.95;;
80679;SDS011;70043;51.982;-8.514;2023-05-08T22:55:18;9.95;;;2.85;;
80679;SDS011;70043;51.982;-8.514;2023-05-08T22:57:46;12.15;;;2.38;;
80679;SDS011;70043;51.982;-8.514;2023-05-08T23:00:14;9.55;;;2.13;;
80679;SDS011;70043;51.982;-8.514;2023-05-08T23:02:42;6.32;;;1.60;;
80679;SDS011;70043;51.982;-8.514;2023-05-08T23:05:10;7.22;;;1.95;;
80679;SDS011;70043;51.982;-8.514;2023-05-08T23:07:39;6.72;;;1.65;;
80679;SDS011;70043;51.982;-8.514;2023-05-08T23:10:08;10.13;;;2.35;;
80679;SDS011;70043;51.982;-8.514;2023-05-08T23:12:36;9.07;;;2.00;;
80679;SDS011;70043;51.982;-8.514;2023-05-08T23:15:04;7.28;;;2.67;;
80679;SDS011;70043;51.982;-8.514;2023-05-08T23:17:34;17.77;;;2.78;;
80679;SDS011;70043;51.982;-8.514;2023-05-08T23:20:02;4.15;;;1.42;;
80679;SDS011;70043;51.982;-8.514;2023-05-08T23:22:30;12.32;;;2.40;;
80679;SDS011;70043;51.982;-8.514;2023-05-08T23:24:59;5.00;;;1.77;;
80679;SDS011;70043;51.982;-8.514;2023-05-08T23:27:27;4.32;;;1.83;;
80679;SDS011;70043;51.982;-8.514;2023-05-08T23:29:54;5.00;;;2.13;;
80679;SDS011;70043;51.982;-8.514;2023-05-08T23:32:22;5.78;;;2.03;;
80679;SDS011;70043;51.982;-8.514;2023-05-08T23:34:50;9.35;;;2.13;;
80679;SDS011;70043;51.982;-8.514;2023-05-08T23:37:18;9.40;;;1.67;;
80679;SDS011;70043;51.982;-8.514;2023-05-08T23:39:45;7.00;;;2.05;;
80679;SDS011;70043;51.982;-8.514;2023-05-08T23:42:15;6.70;;;1.80;;
80679;SDS011;70043;51.982;-8.514;2023-05-08T23:44:42;11.40;;;2.10;;
80679;SDS011;70043;51.982;-8.514;2023-05-08T23:47:10;6.45;;;1.90;;
80679;SDS011;70043;51.982;-8.514;2023-05-08T23:49:38;2.47;;;0.85;;
80679;SDS011;70043;51.982;-8.514;2023-05-08T23:52:06;9.70;;;2.20;;
80679;SDS011;70043;51.982;-8.514;2023-05-08T23:54:34;6.68;;;1.35;;
80679;SDS011;70043;51.982;-8.514;2023-05-08T23:57:02;5.80;;;2.85;;
80679;SDS011;70043;51.982;-8.514;2023-05-08T23:59:31;3.22;;;1.63;;
